Time;durP1;ratioP1;P1;durP2;ratioP2;P2;SDS_P1;SDS_P2;PMS_P1;PMS_P2;Temp;Humidity;BMP_temperature;BMP_pressure;BME280_temperature;BME280_humidity;BME280_pressure;Samples;Min_cycle;Max_cycle;Signal;HPM_P1;HPM_P2
2022/08/29 00:01:08;;;;;;;6.25;5.00;;;;;;;16.21;80.80;101740.03;4935581;28;20437;-45
2022/08/29 00:03:56;;;;;;;8.63;4.57;;;;;;;16.19;80.82;101733.16;4950247;29;20462;-47
2022/08/29 00:06:43;;;;;;;6.78;3.95;;;;;;;16.18;80.96;101732.34;4956090;28;20051;-48
2022/08/29 00:09:31;;;;;;;5.95;3.88;;;;;;;16.19;81.16;101733.97;4955229;29;20083;-44
2022/08/29 00:12:18;;;;;;;7.57;3.55;;;;;;;16.19;81.23;101741.56;4955679;29;20071;-46
2022/08/29 00:15:07;;;;;;;7.93;4.10;;;;;;;16.16;81.31;101739.47;4954635;29;20188;-44
2022/08/29 00:17:55;;;;;;;8.80;2.97;;;;;;;16.14;81.38;101739.84;4936009;29;20134;-43
2022/08/29 00:20:26;;;;;;;5.18;3.25;;;;;;;16.16;81.31;101733.88;4936160;29;20036;-47
2022/08/29 00:23:01;;;;;;;7.90;4.45;;;;;;;16.16;81.32;101740.28;4920649;29;20079;-46
2022/08/29 00:25:28;;;;;;;6.30;2.92;;;;;;;16.17;81.22;101733.53;4938347;29;20082;-43
2022/08/29 00:27:55;;;;;;;7.85;3.50;;;;;;;16.17;81.39;101730.75;4955262;29;20039;-45
2022/08/29 00:45:35;;;;;;;6.75;3.33;;;;;;;16.01;81.21;101724.31;4949798;28;20057;-45
2022/08/29 00:48:12;;;;;;;6.88;4.25;;;;;;;15.98;81.47;101730.63;4957458;28;20486;-45
2022/08/29 00:50:44;;;;;;;6.65;3.35;;;;;;;15.96;81.73;101721.78;4957628;29;20051;-45
2022/08/29 00:53:14;;;;;;;6.75;3.75;;;;;;;15.95;81.90;101720.16;4957393;29;20066;-43
2022/08/29 00:55:44;;;;;;;6.47;3.38;;;;;;;15.94;82.03;101726.13;4957957;29;20063;-44
2022/08/29 00:58:27;;;;;;;8.05;4.78;;;;;;;15.92;82.27;101723.66;4957710;29;20046;-45
2022/08/29 01:00:57;;;;;;;4.15;3.55;;;;;;;15.91;82.34;101716.47;4950775;29;20421;-44
2022/08/29 01:03:24;;;;;;;7.90;3.42;;;;;;;15.90;82.29;101726.00;4956945;29;20506;-44
2022/08/29 01:05:52;;;;;;;4.78;3.63;;;;;;;15.94;82.31;101735.28;4957507;29;20043;-45
2022/08/29 01:08:21;;;;;;;5.57;3.67;;;;;;;15.95;82.28;101728.53;4958930;29;20123;-46
2022/08/29 01:13:39;;;;;;;9.07;3.63;;;;;;;15.94;82.27;101726.91;4958282;29;20106;-44
2022/08/29 01:16:09;;;;;;;6.93;4.00;;;;;;;15.95;82.30;101731.34;4956124;29;20086;-45
2022/08/29 01:18:39;;;;;;;5.47;3.50;;;;;;;15.95;82.21;101727.72;4957981;29;20049;-46
2022/08/29 01:21:31;;;;;;;5.05;3.50;;;;;;;15.94;82.24;101726.91;4956732;29;20063;-45
2022/08/29 01:24:05;;;;;;;4.70;3.47;;;;;;;15.92;82.35;101729.25;4958183;29;20434;-44
2022/08/29 01:26:35;;;;;;;6.78;3.88;;;;;;;15.92;82.17;101732.03;4957333;29;20049;-43
2022/08/29 01:29:02;;;;;;;7.80;5.15;;;;;;;15.95;82.04;101736.09;4957677;29;20493;-43
2022/08/29 01:31:46;;;;;;;4.05;3.10;;;;;;;15.95;81.97;101730.50;4957485;29;20055;-43
2022/08/29 01:34:27;;;;;;;8.98;4.32;;;;;;;15.93;82.04;101736.47;4954799;29;20043;-43
2022/08/29 01:37:01;;;;;;;6.15;3.40;;;;;;;15.94;82.09;101738.06;4955309;29;20433;-43
2022/08/29 01:39:31;;;;;;;7.68;4.38;;;;;;;15.95;81.97;101733.31;4955785;29;20039;-42
2022/08/29 01:42:02;;;;;;;7.35;3.72;;;;;;;15.96;81.95;101735.75;4958028;29;20102;-45
2022/08/29 01:44:29;;;;;;;6.57;3.28;;;;;;;15.97;82.00;101739.34;4947931;29;20211;-42
2022/08/29 01:46:59;;;;;;;6.57;3.75;;;;;;;15.96;81.99;101744.13;4958311;29;20078;-43
2022/08/29 01:49:31;;;;;;;10.23;5.43;;;;;;;15.97;82.08;101742.94;4958291;29;20385;-43
2022/08/29 01:51:58;;;;;;;7.72;4.20;;;;;;;15.95;82.19;101745.31;4957360;29;20489;-43
2022/08/29 01:54:25;;;;;;;6.28;4.38;;;;;;;15.95;82.47;101750.88;4956977;29;20379;-43
2022/08/29 01:56:53;;;;;;;5.55;3.45;;;;;;;15.96;82.44;101751.69;4957288;28;20050;-43
2022/08/29 01:59:26;;;;;;;5.15;3.78;;;;;;;15.97;82.50;101754.13;4939732;29;20047;-42
2022/08/29 02:01:57;;;;;;;6.00;4.00;;;;;;;15.97;82.33;101745.75;4957564;29;20054;-42
2022/08/29 02:04:26;;;;;;;8.13;4.22;;;;;;;15.96;82.29;101749.72;4955739;29;20059;-43
2022/08/29 02:06:54;;;;;;;5.22;3.70;;;;;;;15.96;82.37;101741.34;4957418;28;20040;-42
2022/08/29 02:09:23;;;;;;;10.27;5.25;;;;;;;15.98;82.26;101741.78;4955927;29;20465;-43
2022/08/29 02:11:51;;;;;;;8.13;4.10;;;;;;;16.00;82.23;101742.25;4957305;29;20134;-42
2022/08/29 02:14:18;;;;;;;8.82;4.65;;;;;;;15.99;82.29;101745.41;4958065;29;20051;-43
2022/08/29 02:16:46;;;;;;;8.65;4.25;;;;;;;15.96;82.69;101743.31;4956513;29;20055;-43
2022/08/29 02:19:16;;;;;;;11.73;4.10;;;;;;;15.94;82.54;101752.03;4957151;29;20051;-43
2022/08/29 02:21:43;;;;;;;7.55;4.05;;;;;;;15.94;82.67;101749.25;4957084;29;20051;-43
2022/08/29 02:24:10;;;;;;;12.68;4.82;;;;;;;15.90;82.44;101742.75;4955272;28;20502;-44
2022/08/29 02:26:53;;;;;;;7.15;4.35;;;;;;;15.87;82.88;101740.69;4937923;29;20134;-42
2022/08/29 02:29:20;;;;;;;5.60;4.35;;;;;;;15.87;82.76;101743.47;4937715;29;20044;-42
2022/08/29 02:31:47;;;;;;;5.00;3.97;;;;;;;15.85;82.87;101737.44;4941825;29;20556;-43
2022/08/29 02:34:14;;;;;;;8.60;4.80;;;;;;;15.85;82.94;101734.66;4956750;29;20093;-44
2022/08/29 02:40:33;;;;;;;10.70;5.00;;;;;;;15.79;83.05;101730.47;4946001;29;20070;-43
2022/08/29 02:43:00;;;;;;;8.40;4.97;;;;;;;15.80;83.14;101732.94;4956589;29;20413;-43
2022/08/29 02:45:27;;;;;;;9.02;4.72;;;;;;;15.78;83.16;101740.84;4956389;29;20066;-42
2022/08/29 02:47:57;;;;;;;6.05;3.75;;;;;;;15.77;83.22;101732.81;4954004;29;20430;-43
2022/08/29 02:50:24;;;;;;;7.63;5.30;;;;;;;15.78;83.08;101743.63;4955852;29;20039;-42
2022/08/29 02:52:51;;;;;;;12.35;5.10;;;;;;;15.78;83.30;101731.63;4956501;29;20035;-51
2022/08/29 02:55:20;;;;;;;8.48;4.57;;;;;;;15.77;83.17;101736.44;4954692;29;20057;-50
2022/08/29 02:57:47;;;;;;;8.43;4.03;;;;;;;15.77;83.16;101728.06;4955221;28;20059;-48
2022/08/29 03:38:00;;;;;;;8.38;4.25;;;;;;;15.65;82.98;101713.31;920120;26;20317;-43
2022/08/29 03:40:47;;;;;;;8.82;4.70;;;;;;;15.65;83.15;101710.53;4992253;28;20197;-45
2022/08/29 03:43:34;;;;;;;8.13;4.38;;;;;;;15.63;82.99;101712.88;4981803;28;20129;-46
2022/08/29 03:46:01;;;;;;;11.65;4.45;;;;;;;15.63;83.25;101715.66;4976539;28;20086;-45
2022/08/29 03:48:27;;;;;;;8.48;4.22;;;;;;;15.63;83.27;101716.47;4992941;28;20046;-45
2022/08/29 03:50:54;;;;;;;7.68;4.05;;;;;;;15.65;83.39;101713.31;4979852;28;20039;-44
2022/08/29 03:57:12;;;;;;;7.28;4.88;;;;;;;15.64;83.27;101700.56;4992973;28;20113;-45
2022/08/29 04:03:30;;;;;;;9.05;4.78;;;;;;;15.63;83.47;101698.91;4993058;28;20038;-44
2022/08/29 04:10:05;;;;;;;4.38;3.33;;;;;;;15.64;83.29;101700.56;4983294;28;20469;-43
2022/08/29 04:12:31;;;;;;;10.73;4.18;;;;;;;15.64;83.33;101701.38;4993890;28;20042;-43
2022/08/29 04:18:10;;;;;;;8.40;4.72;;;;;;;15.65;83.76;101697.41;4993950;28;20073;-43
2022/08/29 04:24:19;;;;;;;7.68;4.85;;;;;;;15.66;84.00;101709.38;4967165;28;20038;-45
2022/08/29 04:26:46;;;;;;;11.98;5.35;;;;;;;15.67;84.05;101694.25;4990247;28;20070;-44
2022/08/29 04:29:13;;;;;;;5.60;4.30;;;;;;;15.66;84.22;101699.03;4997062;28;20057;-44
2022/08/29 04:31:42;;;;;;;12.93;5.10;;;;;;;15.68;84.43;101695.88;4997511;28;20132;-45
2022/08/29 04:34:11;;;;;;;10.98;4.43;;;;;;;15.68;84.58;101693.06;4992440;28;20042;-44
2022/08/29 04:36:40;;;;;;;9.40;5.18;;;;;;;15.69;84.58;101694.72;4997748;28;20101;-44
2022/08/29 04:39:08;;;;;;;9.07;7.00;;;;;;;15.70;84.45;101685.19;4997089;28;20121;-43
2022/08/29 04:41:36;;;;;;;10.82;5.45;;;;;;;15.69;84.65;101689.94;4986740;28;20047;-43
2022/08/29 04:44:05;;;;;;;12.52;6.70;;;;;;;15.70;84.84;101687.97;4993820;28;20050;-44
2022/08/29 04:46:32;;;;;;;9.23;5.40;;;;;;;15.70;84.99;101687.97;4983735;28;20089;-43
2022/08/29 04:49:00;;;;;;;11.05;6.40;;;;;;;15.67;85.15;101686.66;4984075;28;20120;-45
2022/08/29 04:51:33;;;;;;;9.07;5.25;;;;;;;15.67;85.25;101695.06;4989735;28;20500;-43
2022/08/29 04:54:00;;;;;;;12.38;6.88;;;;;;;15.68;85.35;101698.66;4996559;28;20365;-43
2022/08/29 04:56:27;;;;;;;10.45;5.85;;;;;;;15.69;85.23;101691.91;4997531;28;20061;-43
2022/08/29 04:58:55;;;;;;;17.80;7.38;;;;;;;15.68;85.32;101702.25;4967374;28;20043;-43
2022/08/29 05:01:23;;;;;;;12.32;7.82;;;;;;;15.67;85.59;101699.84;4958634;29;20070;-44
2022/08/29 05:03:53;;;;;;;21.15;9.35;;;;;;;15.65;85.98;101704.94;4958857;29;20039;-44
2022/08/29 05:06:22;;;;;;;14.40;8.57;;;;;;;15.64;86.22;101711.72;4958538;29;20087;-43
2022/08/29 05:08:51;;;;;;;18.67;8.77;;;;;;;15.63;86.24;101707.28;4958445;29;20098;-43
2022/08/29 05:11:28;;;;;;;14.77;8.40;;;;;;;15.63;86.38;101715.66;4958422;29;20078;-44
2022/08/29 05:13:55;;;;;;;17.13;9.63;;;;;;;15.61;86.64;101713.25;4958804;28;20050;-43
2022/08/29 05:16:22;;;;;;;19.77;10.02;;;;;;;15.61;86.63;101723.59;4957456;28;20042;-45
2022/08/29 05:18:49;;;;;;;18.60;10.82;;;;;;;15.62;86.86;101725.22;4977619;28;20408;-44
2022/08/29 05:21:30;;;;;;;18.75;10.77;;;;;;;15.60;87.22;101721.97;4977505;28;20396;-43
2022/08/29 05:24:06;;;;;;;17.58;10.07;;;;;;;15.58;87.17;101729.88;4977604;28;20481;-43
2022/08/29 05:26:36;;;;;;;20.00;11.98;;;;;;;15.58;87.29;101725.13;4976056;28;20441;-43
2022/08/29 05:29:05;;;;;;;23.85;11.65;;;;;;;15.57;87.52;101729.06;4974268;28;20070;-44
2022/08/29 05:31:35;;;;;;;16.52;12.30;;;;;;;15.57;87.40;101739.41;4979332;28;20047;-43
2022/08/29 05:34:04;;;;;;;21.42;12.63;;;;;;;15.58;87.59;101729.88;4967287;28;20043;-43
2022/08/29 05:36:50;;;;;;;21.63;12.50;;;;;;;15.57;87.82;101728.25;4958023;29;20039;-43
2022/08/29 05:39:18;;;;;;;16.50;12.90;;;;;;;15.56;88.08;101730.25;4957627;29;20062;-43
2022/08/29 05:41:45;;;;;;;21.48;13.32;;;;;;;15.57;87.97;101734.66;4988304;28;20403;-43
2022/08/29 05:44:12;;;;;;;21.83;13.20;;;;;;;15.59;88.12;101737.09;4992778;28;20046;-44
2022/08/29 05:46:39;;;;;;;22.27;14.90;;;;;;;15.59;88.33;101737.09;4976463;28;20047;-45
2022/08/29 05:49:06;;;;;;;27.23;16.40;;;;;;;15.59;88.60;101737.09;4969716;28;20036;-45
2022/08/29 05:51:33;;;;;;;25.48;15.52;;;;;;;15.58;88.83;101738.25;4982671;28;20478;-44
2022/08/29 05:54:05;;;;;;;24.40;14.98;;;;;;;15.61;88.99;101740.34;4976663;28;20047;-42
2022/08/29 05:56:32;;;;;;;28.58;14.55;;;;;;;15.61;89.10;101743.94;4976921;28;20039;-44
2022/08/29 05:58:59;;;;;;;22.00;14.35;;;;;;;15.63;89.38;101744.41;4975992;28;20105;-43
2022/08/29 06:01:29;;;;;;;26.70;15.23;;;;;;;15.65;89.49;101750.44;4974937;28;20046;-45
2022/08/29 06:03:59;;;;;;;29.65;15.57;;;;;;;15.68;89.68;101746.13;4974800;28;20066;-44
2022/08/29 06:06:28;;;;;;;30.17;15.05;;;;;;;15.72;89.59;101752.63;4967835;28;20051;-44
2022/08/29 06:08:56;;;;;;;26.83;16.17;;;;;;;15.74;89.79;101753.09;4956782;29;20055;-43
2022/08/29 06:11:28;;;;;;;22.35;13.27;;;;;;;15.78;89.81;101762.34;4962561;28;20050;-46
2022/08/29 06:13:56;;;;;;;29.83;15.20;;;;;;;15.81;89.95;101750.47;4995814;28;20416;-44
2022/08/29 06:23:54;;;;;;;30.23;14.98;;;;;;;15.92;89.68;101761.94;4960962;28;20126;-44
2022/08/29 06:30:12;;;;;;;27.92;13.27;;;;;;;15.99;89.65;101771.34;4991182;28;20034;-44
2022/08/29 06:36:20;;;;;;;30.05;13.73;;;;;;;16.07;89.58;101770.34;4977432;28;20030;-45
2022/08/29 06:38:47;;;;;;;24.55;13.38;;;;;;;16.12;89.57;101770.13;4994303;28;20104;-44
2022/08/29 06:41:16;;;;;;;22.98;13.02;;;;;;;16.15;89.68;101766.59;4985507;28;20081;-45
2022/08/29 06:43:43;;;;;;;29.15;13.50;;;;;;;16.21;89.55;101773.53;4994549;28;20050;-48
2022/08/29 06:46:23;;;;;;;21.63;12.57;;;;;;;16.25;89.54;101771.69;4995412;28;20078;-45
2022/08/29 06:48:51;;;;;;;28.95;13.05;;;;;;;16.28;89.67;101770.16;4995526;28;20092;-43
2022/08/29 06:51:19;;;;;;;24.42;13.07;;;;;;;16.30;89.62;101774.19;4985371;28;20043;-43
2022/08/29 06:53:45;;;;;;;30.30;15.60;;;;;;;16.36;89.70;101777.53;4987307;28;20045;-44
2022/08/29 06:59:53;;;;;;;30.83;13.52;;;;;;;16.49;89.43;101769.88;4972061;28;20042;-44
2022/08/29 07:06:11;;;;;;;26.15;13.27;;;;;;;16.68;89.29;101770.78;4975373;28;20074;-43
2022/08/29 07:08:38;;;;;;;17.40;12.07;;;;;;;16.74;89.20;101780.53;4974559;28;20086;-45
2022/08/29 07:11:21;;;;;;;24.70;12.75;;;;;;;16.77;89.12;101791.00;4975601;28;20050;-45
2022/08/29 07:13:47;;;;;;;25.92;12.30;;;;;;;16.80;89.00;101789.47;4971883;28;20055;-48
2022/08/29 07:16:15;;;;;;;26.23;13.18;;;;;;;16.83;88.96;101778.38;4970963;28;20053;-45
2022/08/29 07:18:44;;;;;;;29.55;12.55;;;;;;;16.89;89.02;101784.50;4995144;28;20085;-45
2022/08/29 07:21:14;;;;;;;24.52;12.48;;;;;;;16.95;88.82;101788.63;4995587;28;20059;-44
2022/08/29 07:23:52;;;;;;;27.75;12.07;;;;;;;17.02;88.76;101794.41;4994900;28;20050;-44
2022/08/29 07:26:42;;;;;;;23.25;12.85;;;;;;;17.05;88.52;101794.47;4995469;28;20514;-44
2022/08/29 07:29:29;;;;;;;21.92;12.43;;;;;;;17.08;88.52;101804.13;4974235;28;20053;-46
2022/08/29 07:32:16;;;;;;;21.25;12.25;;;;;;;17.10;88.55;101796.22;4974938;28;20170;-44
2022/08/29 07:35:03;;;;;;;21.67;12.05;;;;;;;17.11;88.19;101800.63;4956832;28;20078;-44
2022/08/29 07:37:54;;;;;;;24.48;11.18;;;;;;;17.12;88.08;101799.44;4956144;29;20179;-45
2022/08/29 07:40:41;;;;;;;24.95;10.93;;;;;;;17.13;87.97;101795.47;4954213;28;20130;-47
2022/08/29 07:43:29;;;;;;;21.42;12.20;;;;;;;17.17;87.82;101796.38;4974471;28;20500;-44
2022/08/29 07:46:18;;;;;;;25.05;11.00;;;;;;;17.20;87.95;101792.84;4974722;28;20042;-44
2022/08/29 07:49:06;;;;;;;22.35;11.60;;;;;;;17.21;87.77;101791.66;4961962;28;20062;-44
2022/08/29 07:51:54;;;;;;;19.77;11.13;;;;;;;17.27;87.84;101795.78;4974466;28;20098;-46
2022/08/29 07:54:41;;;;;;;20.85;11.85;;;;;;;17.30;87.61;101795.06;4974339;28;20508;-44
2022/08/29 07:57:28;;;;;;;16.90;10.10;;;;;;;17.32;87.33;101792.72;4975136;28;20042;-44
2022/08/29 08:00:15;;;;;;;18.90;10.90;;;;;;;17.36;87.35;101801.19;4957007;28;20079;-44
2022/08/29 08:11:25;;;;;;;18.50;9.80;;;;;;;17.51;86.89;101806.75;4988884;28;20492;-43
2022/08/29 08:14:12;;;;;;;26.95;10.27;;;;;;;17.63;87.38;101798.22;4995169;28;20389;-43
2022/08/29 08:21:12;;;;;;;15.65;8.60;;;;;;;18.01;87.77;101807.81;4975289;28;20404;-44
2022/08/29 08:23:59;;;;;;;17.50;8.75;;;;;;;18.16;88.07;101795.72;4955913;28;20398;-44
2022/08/29 08:30:48;;;;;;;17.83;8.18;;;;;;;18.43;87.47;101811.44;4958778;28;20074;-44
2022/08/29 08:37:46;;;;;;;20.63;8.63;;;;;;;18.76;86.05;101803.25;4979558;28;20117;-45
2022/08/29 08:40:42;;;;;;;25.15;9.02;;;;;;;18.89;85.15;101814.25;4984900;28;20423;-44
2022/08/29 08:43:50;;;;;;;13.40;7.43;;;;;;;19.07;83.37;101795.72;4991993;28;20034;-44
2022/08/29 08:46:46;;;;;;;16.30;8.00;;;;;;;19.32;82.67;101805.31;4989703;28;20126;-45
2022/08/29 08:49:43;;;;;;;14.32;7.40;;;;;;;19.81;80.82;101800.41;4984068;28;20140;-44
2022/08/29 08:52:44;;;;;;;13.20;7.25;;;;;;;20.79;79.30;101810.28;4967503;28;20132;-44
2022/08/29 08:55:53;;;;;;;11.63;7.25;;;;;;;21.63;76.05;101810.13;4986505;28;20133;-45
2022/08/29 08:58:53;;;;;;;14.02;6.57;;;;;;;22.52;73.59;101806.41;4985809;28;20169;-45
2022/08/29 09:01:46;;;;;;;15.30;6.35;;;;;;;23.49;70.22;101798.31;4986664;28;20035;-44
2022/08/29 09:04:36;;;;;;;14.65;6.22;;;;;;;24.30;67.52;101814.16;4965413;28;20137;-46
2022/08/29 09:07:41;;;;;;;11.35;5.47;;;;;;;24.97;65.33;101802.34;4958393;29;20190;-44
2022/08/29 09:10:52;;;;;;;9.73;5.18;;;;;;;25.59;63.08;101810.66;4960033;28;20091;-46
2022/08/29 09:14:13;;;;;;;10.85;5.50;;;;;;;26.12;61.00;101820.53;4963661;28;20046;-47
2022/08/29 09:17:02;;;;;;;10.23;4.38;;;;;;;26.14;58.76;101818.09;4976777;28;20121;-46
2022/08/29 09:19:50;;;;;;;8.88;5.05;;;;;;;25.90;57.55;101820.00;4980924;28;20051;-45
2022/08/29 09:26:48;;;;;;;7.65;5.07;;;;;;;24.17;58.84;101810.22;4989619;28;20046;-48
2022/08/29 09:29:36;;;;;;;9.88;5.75;;;;;;;23.76;59.01;101823.28;4979350;28;20533;-46
2022/08/29 09:32:23;;;;;;;12.90;6.25;;;;;;;23.35;59.56;101820.94;4978081;28;20189;-50
2022/08/29 09:35:23;;;;;;;8.65;5.68;;;;;;;23.37;59.87;101824.19;4957170;29;20402;-47
2022/08/29 09:38:16;;;;;;;7.57;5.40;;;;;;;23.34;59.49;101815.69;4966409;28;20559;-46
2022/08/29 09:41:06;;;;;;;11.73;5.70;;;;;;;23.15;59.76;101831.06;4987844;28;20120;-46
2022/08/29 09:43:56;;;;;;;7.93;5.97;;;;;;;22.87;60.24;101816.94;4977180;28;20098;-48
2022/08/29 09:46:43;;;;;;;8.02;5.47;;;;;;;22.96;60.54;101829.44;4973524;28;20133;-47
2022/08/29 09:49:30;;;;;;;12.27;5.10;;;;;;;23.72;59.56;101819.66;4964695;28;20047;-45
2022/08/29 09:52:23;;;;;;;11.85;5.13;;;;;;;24.77;57.52;101838.91;4958506;28;20133;-45
2022/08/29 09:55:43;;;;;;;10.70;5.00;;;;;;;25.27;56.21;101830.81;4957715;29;20040;-45
2022/08/29 09:58:37;;;;;;;8.52;5.30;;;;;;;26.02;54.72;101828.78;4990270;28;20046;-44
2022/08/29 10:01:28;;;;;;;8.35;5.53;;;;;;;26.43;52.66;101827.81;4996373;28;20050;-44
2022/08/29 10:04:36;;;;;;;11.40;5.38;;;;;;;26.74;52.17;101828.59;4981542;28;20054;-46
2022/08/29 10:07:30;;;;;;;8.98;5.10;;;;;;;27.07;51.30;101834.13;4967845;28;20073;-45
2022/08/29 10:10:22;;;;;;;9.48;5.20;;;;;;;27.28;50.50;101829.28;4996220;28;20121;-44
2022/08/29 10:13:25;;;;;;;6.40;4.85;;;;;;;27.30;50.00;101826.84;4977100;28;20098;-45
2022/08/29 10:16:42;;;;;;;8.45;5.13;;;;;;;27.39;49.07;101827.06;4972889;28;20718;-47
2022/08/29 10:19:29;;;;;;;7.57;4.80;;;;;;;27.60;48.52;101823.84;4972417;28;20090;-47
2022/08/29 10:22:40;;;;;;;8.23;4.95;;;;;;;27.60;48.39;101824.66;4964292;28;20065;-46
2022/08/29 10:25:35;;;;;;;9.40;4.05;;;;;;;27.60;47.75;101823.84;4976133;28;20130;-49
2022/08/29 10:28:41;;;;;;;8.38;4.28;;;;;;;27.59;47.46;101823.03;4980204;28;20157;-45
2022/08/29 10:31:37;;;;;;;8.75;4.10;;;;;;;27.84;46.62;101827.44;4976189;28;20078;-46
2022/08/29 10:38:47;;;;;;;10.02;4.20;;;;;;;27.73;45.95;101821.94;4965009;28;20047;-47
2022/08/29 10:46:02;;;;;;;8.07;3.78;;;;;;;27.25;45.90;101821.63;4985589;28;20407;-45
2022/08/29 10:48:52;;;;;;;8.55;4.03;;;;;;;26.97;46.29;101823.75;4966020;28;20147;-45
2022/08/29 10:51:42;;;;;;;4.45;3.20;;;;;;;26.74;46.30;101823.69;4980107;28;20038;-46
2022/08/29 10:54:44;;;;;;;4.30;3.70;;;;;;;26.35;46.92;101817.81;4991585;28;20078;-47
2022/08/29 10:57:34;;;;;;;9.07;4.10;;;;;;;26.03;48.12;101827.53;4974001;28;20129;-45
2022/08/29 11:00:27;;;;;;;12.55;3.58;;;;;;;25.73;48.41;101830.38;4981554;28;20078;-46
2022/08/29 11:03:38;;;;;;;7.53;3.80;;;;;;;25.37;49.35;101826.25;4995607;28;20039;-46
2022/08/29 11:06:34;;;;;;;12.02;4.45;;;;;;;25.04;50.22;101827.00;4995960;28;20590;-46
2022/08/29 11:09:33;;;;;;;4.60;3.25;;;;;;;24.72;50.58;101821.56;4979056;28;20054;-46
2022/08/29 11:12:43;;;;;;;4.05;3.28;;;;;;;24.51;51.36;101824.53;4980206;28;20169;-45
2022/08/29 11:15:40;;;;;;;6.78;3.85;;;;;;;24.33;51.54;101824.63;4994608;28;20077;-47
2022/08/29 11:22:51;;;;;;;5.72;2.63;;;;;;;23.87;52.48;101829.69;4994973;28;20042;-44
2022/08/29 11:25:40;;;;;;;8.65;3.20;;;;;;;23.75;52.56;101833.00;4995089;28;20121;-45
2022/08/29 11:28:33;;;;;;;6.82;3.38;;;;;;;23.57;52.86;101828.19;4966423;28;20468;-43
2022/08/29 11:31:29;;;;;;;7.85;3.10;;;;;;;23.27;53.27;101835.50;4972044;28;20093;-44
2022/08/29 11:34:36;;;;;;;21.05;6.05;;;;;;;23.07;53.61;101834.28;4983022;28;20038;-43
2022/08/29 11:38:00;;;;;;;12.35;3.65;;;;;;;22.90;54.00;101833.88;4992192;28;20053;-45
2022/08/29 11:42:04;;;;;;;7.30;2.97;;;;;;;22.75;54.04;101831.47;4978338;28;20149;-46
2022/08/29 11:49:24;;;;;;;3.63;2.15;;;;;;;22.38;54.03;101826.94;4976613;28;20042;-44
2022/08/29 11:51:58;;;;;;;3.17;2.25;;;;;;;22.37;53.66;101830.97;4971286;28;20488;-44
2022/08/29 11:54:27;;;;;;;2.95;2.40;;;;;;;22.36;53.36;101825.72;4994246;28;20057;-46
2022/08/29 11:56:59;;;;;;;5.57;2.80;;;;;;;22.32;53.11;101819.25;4981847;28;20061;-46
2022/08/29 11:59:48;;;;;;;5.32;2.40;;;;;;;22.28;53.81;101827.72;4988789;28;20133;-45
2022/08/29 12:02:35;;;;;;;4.47;3.90;;;;;;;22.39;54.41;101831.38;4989836;28;20519;-44
2022/08/29 12:05:28;;;;;;;6.93;4.07;;;;;;;22.44;55.16;101822.53;4994146;28;20120;-47
2022/08/29 12:08:30;;;;;;;9.95;3.88;;;;;;;22.43;55.90;101831.38;4990803;28;20066;-44
2022/08/29 12:12:11;;;;;;;7.85;4.40;;;;;;;22.56;56.22;101829.00;4965270;28;20508;-44
2022/08/29 12:14:58;;;;;;;8.55;4.05;;;;;;;22.62;56.37;101828.19;4968913;28;20489;-45
2022/08/29 12:17:46;;;;;;;7.50;3.50;;;;;;;22.67;56.78;101824.19;4956437;28;20053;-45
2022/08/29 12:20:54;;;;;;;9.93;4.10;;;;;;;22.72;56.42;101832.25;4958371;28;20047;-44
2022/08/29 12:24:32;;;;;;;8.20;3.50;;;;;;;22.70;55.82;101834.69;4954586;28;20512;-44
2022/08/29 12:27:44;;;;;;;12.32;3.85;;;;;;;22.67;55.87;101841.94;4961272;28;20046;-44
2022/08/29 12:35:06;;;;;;;6.90;4.95;;;;;;;22.84;55.97;101831.88;4974160;28;20054;-45
2022/08/29 12:38:15;;;;;;;9.23;5.13;;;;;;;22.82;56.38;101834.31;4958277;28;20055;-46
2022/08/29 12:41:32;;;;;;;7.82;4.88;;;;;;;22.82;57.03;101837.13;4945817;28;20047;-46
2022/08/29 12:44:26;;;;;;;9.93;5.25;;;;;;;22.76;56.50;101828.25;4947045;28;20138;-44
2022/08/29 12:51:39;;;;;;;8.18;4.35;;;;;;;22.92;56.87;101827.84;4939101;29;20065;-39
2022/08/29 12:54:40;;;;;;;11.35;6.05;;;;;;;22.99;56.66;101836.31;4940000;29;20171;-41
2022/08/29 12:57:34;;;;;;;11.55;5.22;;;;;;;23.02;56.90;101838.31;4949119;29;20049;-41
2022/08/29 13:00:28;;;;;;;13.20;5.28;;;;;;;22.92;56.97;101839.94;4959752;28;20170;-40
2022/08/29 13:03:18;;;;;;;10.40;5.30;;;;;;;22.82;57.40;101842.78;4942047;29;20035;-45
2022/08/29 13:06:11;;;;;;;10.73;5.40;;;;;;;22.88;57.52;101843.97;4959681;28;20442;-48
2022/08/29 13:08:59;;;;;;;10.23;5.97;;;;;;;22.83;57.41;101850.00;4958305;28;20130;-48
2022/08/29 13:11:46;;;;;;;11.82;6.55;;;;;;;22.65;57.58;101849.19;4933181;29;20080;-45
2022/08/29 13:18:44;;;;;;;11.50;6.18;;;;;;;22.57;58.02;101842.69;4957182;29;20047;-45
2022/08/29 13:22:02;;;;;;;13.25;5.80;;;;;;;22.90;57.03;101839.53;4938576;29;20410;-48
2022/08/29 13:25:04;;;;;;;11.50;6.68;;;;;;;22.98;56.94;101829.06;4942095;29;20075;-46
2022/08/29 13:27:56;;;;;;;13.80;6.45;;;;;;;22.91;57.04;101835.50;4953490;29;20039;-44
2022/08/29 13:35:13;;;;;;;10.45;5.90;;;;;;;22.90;56.72;101833.09;4947441;28;20407;-45
2022/08/29 13:43:34;;;;;;;13.15;6.57;;;;;;;23.26;55.65;101837.50;4982106;28;20039;-50
2022/08/29 13:46:36;;;;;;;10.30;7.00;;;;;;;23.34;55.15;101843.94;4958994;28;20170;-46
2022/08/29 13:53:34;;;;;;;9.18;4.78;;;;;;;22.78;55.58;101842.75;4973477;28;20508;-45
2022/08/29 13:56:32;;;;;;;9.82;5.22;;;;;;;22.86;55.60;101840.75;4987399;28;20467;-48
2022/08/29 13:59:25;;;;;;;10.00;5.35;;;;;;;23.04;55.61;101838.72;4997174;28;20042;-47
2022/08/29 14:02:13;;;;;;;6.78;4.43;;;;;;;23.24;55.05;101842.75;4987730;28;20125;-47
2022/08/29 14:09:02;;;;;;;8.15;3.88;;;;;;;22.96;55.39;101845.59;4971292;28;20043;-48
2022/08/29 14:16:13;;;;;;;8.90;3.42;;;;;;;22.45;56.51;101846.69;4991804;28;20041;-45
2022/08/29 14:18:40;;;;;;;11.18;4.47;;;;;;;22.40;56.48;101841.44;4987595;28;20054;-45
2022/08/29 14:21:07;;;;;;;7.32;4.18;;;;;;;22.34;56.46;101831.78;4981954;28;20480;-45
2022/08/29 14:23:34;;;;;;;9.02;3.40;;;;;;;22.28;56.80;101835.38;4991569;28;20436;-44
2022/08/29 14:26:00;;;;;;;7.25;3.85;;;;;;;22.15;57.25;101840.59;4992363;28;20046;-45
2022/08/29 14:28:27;;;;;;;10.82;4.40;;;;;;;22.02;57.12;101836.50;4984583;28;20124;-44
2022/08/29 14:30:54;;;;;;;12.77;4.43;;;;;;;22.01;57.45;101834.06;4977057;28;20389;-44
2022/08/29 14:33:22;;;;;;;15.50;4.78;;;;;;;22.01;57.64;101831.25;4977085;28;20047;-48
2022/08/29 14:35:50;;;;;;;10.80;4.55;;;;;;;21.91;57.43;101832.84;4980667;28;20047;-44
2022/08/29 14:38:17;;;;;;;12.40;4.90;;;;;;;21.86;57.68;101836.03;4994560;28;20062;-44
2022/08/29 14:40:44;;;;;;;16.27;5.45;;;;;;;21.92;57.64;101834.47;4988435;28;20059;-47
2022/08/29 14:43:11;;;;;;;11.93;5.47;;;;;;;21.90;57.75;101825.56;4977675;28;20047;-45
2022/08/29 14:45:38;;;;;;;7.75;3.95;;;;;;;21.91;57.96;101832.84;4974735;28;20035;-45
2022/08/29 14:48:05;;;;;;;7.70;4.70;;;;;;;21.98;57.62;101837.69;4972960;28;20560;-44
2022/08/29 14:54:23;;;;;;;12.18;6.15;;;;;;;22.19;57.85;101829.28;4969546;28;20043;-44
2022/08/29 14:57:10;;;;;;;8.18;4.38;;;;;;;22.21;57.33;101827.69;4973577;28;20127;-48
2022/08/29 14:59:58;;;;;;;11.82;5.95;;;;;;;22.16;57.21;101822.44;4960885;28;20040;-45
2022/08/29 15:06:56;;;;;;;8.52;5.88;;;;;;;22.14;57.40;101827.69;4969830;28;20042;-44
2022/08/29 15:09:44;;;;;;;15.75;6.03;;;;;;;22.22;57.00;101832.13;4973500;28;20075;-45
2022/08/29 15:12:31;;;;;;;10.75;5.80;;;;;;;22.22;57.10;101826.50;4956734;28;20134;-44
2022/08/29 15:19:20;;;;;;;12.02;7.65;;;;;;;21.94;57.35;101819.94;4959603;28;20050;-47
2022/08/29 15:26:28;;;;;;;11.98;8.35;;;;;;;21.39;58.47;101819.25;4957013;28;20043;-45
2022/08/29 15:33:26;;;;;;;13.00;8.85;;;;;;;20.90;59.37;101822.47;4976716;28;20046;-44
2022/08/29 15:36:13;;;;;;;15.40;9.70;;;;;;;20.90;60.07;101823.28;4986586;28;20170;-47
2022/08/29 15:39:04;;;;;;;15.32;7.70;;;;;;;20.96;59.78;101823.72;4973854;28;20070;-52
2022/08/29 15:46:05;;;;;;;13.70;8.32;;;;;;;21.71;58.87;101817.41;4963303;28;20522;-43
2022/08/29 15:48:53;;;;;;;13.75;8.50;;;;;;;21.82;58.18;101815.44;4982503;28;20051;-45